createdAt,value
2022-11-06T00:00:31.217Z,6.80
2022-11-06T00:02:59.183Z,6.70
2022-11-06T00:05:44.739Z,6.70
2022-11-06T00:08:11.605Z,6.70
2022-11-06T00:10:38.388Z,6.80
2022-11-06T00:13:04.948Z,6.80
2022-11-06T00:15:31.505Z,6.70
2022-11-06T00:17:58.045Z,6.70
2022-11-06T00:20:24.573Z,6.70
2022-11-06T00:22:51.167Z,6.80
2022-11-06T00:25:17.699Z,6.90
2022-11-06T00:27:44.272Z,6.90
2022-11-06T00:30:13.761Z,7.00
2022-11-06T00:32:40.345Z,7.10
2022-11-06T00:35:07.272Z,7.20
2022-11-06T00:37:33.941Z,7.20
2022-11-06T00:40:00.786Z,7.20
2022-11-06T00:42:27.344Z,7.20
2022-11-06T00:44:53.876Z,7.30
2022-11-06T00:47:20.457Z,7.30
2022-11-06T00:49:46.978Z,7.30
2022-11-06T00:52:13.517Z,7.40
2022-11-06T00:54:40.071Z,7.40
2022-11-06T00:57:07.022Z,7.40
2022-11-06T00:59:33.554Z,7.40
2022-11-06T01:02:00.280Z,7.40
2022-11-06T01:04:26.911Z,7.40
2022-11-06T01:06:53.804Z,7.40
2022-11-06T01:09:21.099Z,7.30
2022-11-06T01:14:36.559Z,7.40
2022-11-06T01:17:03.140Z,7.40
2022-11-06T01:19:29.670Z,7.40
2022-11-06T01:21:56.422Z,7.40
2022-11-06T01:24:23.720Z,7.50
2022-11-06T01:27:20.020Z,7.40
2022-11-06T01:29:37.090Z,7.50
2022-11-06T01:32:03.755Z,7.40
2022-11-06T01:34:30.349Z,7.30
2022-11-06T01:36:56.899Z,7.30
2022-11-06T01:39:23.430Z,7.20
2022-11-06T01:41:50.750Z,7.20
2022-11-06T01:44:35.342Z,7.20
2022-11-06T01:47:02.886Z,7.20
2022-11-06T01:49:30.991Z,7.30
2022-11-06T01:51:58.284Z,7.30
2022-11-06T01:54:25.455Z,7.30
2022-11-06T01:56:52.685Z,7.30
2022-11-06T01:59:19.781Z,7.40
2022-11-06T02:01:46.407Z,7.30
2022-11-06T02:04:16.010Z,7.30
2022-11-06T02:06:42.616Z,7.30
2022-11-06T02:09:12.077Z,7.30
2022-11-06T02:11:39.220Z,7.40
2022-11-06T02:14:12.927Z,7.40
2022-11-06T02:16:56.705Z,7.40
2022-11-06T02:19:36.167Z,7.30
2022-11-06T02:22:10.833Z,7.30
2022-11-06T02:24:40.551Z,7.30
2022-11-06T02:27:13.140Z,7.30
2022-11-06T02:29:47.753Z,7.30
2022-11-06T02:32:17.024Z,7.30
2022-11-06T02:34:43.578Z,7.30
2022-11-06T02:37:11.239Z,7.30
2022-11-06T02:39:38.764Z,7.40
2022-11-06T02:42:05.940Z,7.40
2022-11-06T02:44:32.543Z,7.40
2022-11-06T02:47:01.539Z,7.40
2022-11-06T02:49:32.655Z,7.40
2022-11-06T02:52:00.445Z,7.40
2022-11-06T02:54:27.502Z,7.40
2022-11-06T02:56:54.115Z,7.40
2022-11-06T02:59:25.396Z,7.40
2022-11-06T03:01:52.948Z,7.40
2022-11-06T03:04:30.491Z,7.40
2022-11-06T03:07:16.547Z,7.40
2022-11-06T03:09:43.084Z,7.40
2022-11-06T03:12:14.581Z,7.40
2022-11-06T03:14:53.255Z,7.40
2022-11-06T03:17:39.706Z,7.30
2022-11-06T03:20:12.458Z,7.30
2022-11-06T03:22:40.450Z,7.30
2022-11-06T03:25:15.482Z,7.20
2022-11-06T03:27:43.497Z,7.20
2022-11-06T03:30:15.291Z,7.20
2022-11-06T03:32:49.059Z,7.20
2022-11-06T03:35:18.764Z,7.20
2022-11-06T03:37:48.110Z,7.20
2022-11-06T03:40:15.751Z,7.20
2022-11-06T03:42:42.307Z,7.20
2022-11-06T03:45:09.713Z,7.20
2022-11-06T03:47:36.227Z,7.20
2022-11-06T03:50:07.657Z,7.20
2022-11-06T03:52:35.858Z,7.20
2022-11-06T03:55:05.913Z,7.20
2022-11-06T03:57:37.249Z,7.20
2022-11-06T04:00:03.993Z,7.20
2022-11-06T04:02:30.768Z,7.20
2022-11-06T04:04:58.781Z,7.20
2022-11-06T04:08:04.442Z,7.20
2022-11-06T04:10:49.616Z,7.20
2022-11-06T04:13:34.870Z,7.20
2022-11-06T04:16:01.846Z,7.20
2022-11-06T04:18:28.391Z,7.20
2022-11-06T04:21:18.409Z,7.20
2022-11-06T04:24:22.543Z,7.20
2022-11-06T04:26:51.908Z,7.20
2022-11-06T04:29:20.905Z,7.20
2022-11-06T04:31:54.793Z,7.20
2022-11-06T04:34:24.415Z,7.20
2022-11-06T04:36:55.704Z,7.20
2022-11-06T04:39:25.219Z,7.20
2022-11-06T04:42:14.581Z,7.20
2022-11-06T04:44:41.650Z,7.10
2022-11-06T04:47:09.095Z,7.10
2022-11-06T04:49:36.318Z,7.10
2022-11-06T04:52:03.285Z,7.00
2022-11-06T04:54:29.939Z,7.10
2022-11-06T04:57:00.435Z,7.00
2022-11-06T04:59:27.053Z,7.00
2022-11-06T05:01:53.720Z,7.10
2022-11-06T05:04:20.286Z,7.00
2022-11-06T05:06:46.821Z,7.00
2022-11-06T05:09:13.372Z,7.00
2022-11-06T05:11:39.908Z,7.00
2022-11-06T05:14:06.528Z,7.00
2022-11-06T05:16:33.093Z,7.00
2022-11-06T05:18:59.642Z,7.00
2022-11-06T05:21:44.947Z,7.00
2022-11-06T05:24:11.747Z,7.10
2022-11-06T05:26:38.317Z,7.10
2022-11-06T05:29:04.868Z,7.10
2022-11-06T05:31:31.412Z,7.10
2022-11-06T05:33:57.954Z,7.10
2022-11-06T05:36:24.527Z,7.10
2022-11-06T05:38:51.407Z,7.10
2022-11-06T05:41:18.033Z,7.20
2022-11-06T05:43:44.646Z,7.20
2022-11-06T05:46:29.712Z,7.20
2022-11-06T05:48:57.701Z,7.20
2022-11-06T05:51:24.240Z,7.20
2022-11-06T05:53:50.795Z,7.20
2022-11-06T05:56:17.326Z,7.30
2022-11-06T05:58:43.911Z,7.20
2022-11-06T06:01:10.442Z,7.30
2022-11-06T06:03:36.990Z,7.30
2022-11-06T06:06:03.622Z,7.30
2022-11-06T06:08:30.179Z,7.30
2022-11-06T06:10:56.721Z,7.30
2022-11-06T06:13:25.705Z,7.30
2022-11-06T06:15:52.236Z,7.40
2022-11-06T06:18:18.783Z,7.40
2022-11-06T06:20:45.318Z,7.30
2022-11-06T06:23:11.895Z,7.40
2022-11-06T06:25:38.444Z,7.30
2022-11-06T06:28:05.000Z,7.40
2022-11-06T06:30:31.994Z,7.40
2022-11-06T06:33:02.813Z,7.40
2022-11-06T06:35:29.352Z,7.40
2022-11-06T06:37:55.913Z,7.40
2022-11-06T06:40:23.150Z,7.40
2022-11-06T06:42:49.732Z,7.40
2022-11-06T06:45:16.258Z,7.50
2022-11-06T06:47:42.991Z,7.40
2022-11-06T06:50:09.702Z,7.40
2022-11-06T06:52:36.255Z,7.50
2022-11-06T06:55:02.854Z,7.40
2022-11-06T06:57:29.395Z,7.50
2022-11-06T06:59:55.943Z,7.50
2022-11-06T07:02:22.688Z,7.50
2022-11-06T07:04:49.283Z,7.50
2022-11-06T07:07:15.815Z,7.50
2022-11-06T07:09:42.641Z,7.50
2022-11-06T07:12:09.190Z,7.50
2022-11-06T07:14:35.769Z,7.50
2022-11-06T07:17:02.316Z,7.60
2022-11-06T07:19:28.861Z,7.60
2022-11-06T07:21:55.402Z,7.70
2022-11-06T07:24:21.986Z,7.70
2022-11-06T07:26:48.519Z,7.70
2022-11-06T07:29:15.101Z,7.80
2022-11-06T07:31:41.664Z,7.80
2022-11-06T07:34:08.219Z,7.80
2022-11-06T07:36:35.098Z,7.80
2022-11-06T07:39:01.647Z,7.90
2022-11-06T07:41:28.301Z,7.90
2022-11-06T07:43:54.848Z,8.00
2022-11-06T07:46:21.392Z,8.10
2022-11-06T07:48:48.458Z,8.20
2022-11-06T07:51:14.995Z,8.20
2022-11-06T07:53:41.619Z,8.20
2022-11-06T07:56:08.722Z,8.20
2022-11-06T07:58:35.294Z,8.20
2022-11-06T08:01:02.403Z,8.20
2022-11-06T08:03:30.259Z,8.30
2022-11-06T08:05:57.530Z,8.30
2022-11-06T08:08:24.096Z,8.40
2022-11-06T08:10:52.060Z,8.40
2022-11-06T08:13:18.619Z,8.40
2022-11-06T08:15:45.484Z,8.40
2022-11-06T08:18:12.587Z,8.40
2022-11-06T08:20:39.634Z,8.50
2022-11-06T08:23:06.729Z,8.50
2022-11-06T08:25:33.710Z,8.50
2022-11-06T08:28:00.591Z,8.60
2022-11-06T08:30:27.452Z,8.70
2022-11-06T08:32:54.159Z,8.70
2022-11-06T08:35:20.687Z,8.70
2022-11-06T08:37:47.428Z,8.80
2022-11-06T08:40:13.964Z,8.80
2022-11-06T08:42:40.494Z,8.90
2022-11-06T08:45:07.299Z,9.20
2022-11-06T08:47:33.833Z,9.40
2022-11-06T08:50:00.414Z,9.60
2022-11-06T08:52:32.768Z,9.80
2022-11-06T08:55:00.378Z,9.80
2022-11-06T08:57:27.063Z,9.50
2022-11-06T08:59:53.619Z,9.40
2022-11-06T09:02:20.189Z,9.50
2022-11-06T09:04:46.813Z,9.50
2022-11-06T09:07:13.380Z,9.70
2022-11-06T09:09:39.933Z,9.70
2022-11-06T09:12:06.666Z,9.60
2022-11-06T09:14:34.075Z,9.70
2022-11-06T09:17:00.879Z,9.80
2022-11-06T09:19:27.422Z,9.90
2022-11-06T09:21:55.015Z,10.00
2022-11-06T09:24:43.285Z,10.10
2022-11-06T09:27:08.360Z,10.20
2022-11-06T09:29:34.916Z,10.50
2022-11-06T09:32:01.664Z,10.60
2022-11-06T09:34:28.227Z,10.70
2022-11-06T09:36:54.973Z,10.50
2022-11-06T09:39:21.517Z,10.70
2022-11-06T09:42:08.627Z,10.80
2022-11-06T09:44:38.220Z,10.90
2022-11-06T09:47:05.883Z,10.90
2022-11-06T09:49:34.100Z,10.90
2022-11-06T09:52:03.811Z,10.90
2022-11-06T09:54:31.972Z,11.00
2022-11-06T09:57:01.875Z,11.10
2022-11-06T09:59:28.418Z,11.10
2022-11-06T10:01:57.026Z,11.10
2022-11-06T10:04:29.435Z,11.10
2022-11-06T10:06:55.972Z,11.10
2022-11-06T10:09:22.539Z,11.30
2022-11-06T10:11:55.381Z,11.40
2022-11-06T10:14:21.916Z,11.40
2022-11-06T10:16:50.582Z,11.50
2022-11-06T10:19:35.472Z,11.40
2022-11-06T10:22:05.063Z,11.30
2022-11-06T10:24:37.862Z,11.30
2022-11-06T10:27:04.835Z,11.50
2022-11-06T10:29:38.487Z,11.60
2022-11-06T10:32:20.215Z,11.50
2022-11-06T10:34:47.295Z,11.70
2022-11-06T10:37:18.365Z,11.90
2022-11-06T10:39:44.915Z,12.00
2022-11-06T10:42:18.611Z,12.00
2022-11-06T10:44:47.838Z,12.00
2022-11-06T10:47:21.344Z,11.80
2022-11-06T10:49:51.755Z,11.80
2022-11-06T10:52:27.530Z,11.70
2022-11-06T10:55:06.311Z,11.90
2022-11-06T10:57:36.518Z,12.00
2022-11-06T11:00:04.655Z,12.10
2022-11-06T11:02:32.290Z,12.10
2022-11-06T11:04:58.967Z,11.90
2022-11-06T11:07:26.481Z,11.90
2022-11-06T11:09:53.076Z,12.10
2022-11-06T11:12:22.639Z,12.20
2022-11-06T11:15:24.745Z,12.10
2022-11-06T11:18:07.469Z,12.20
2022-11-06T11:20:34.689Z,12.10
2022-11-06T11:23:04.975Z,12.30
2022-11-06T11:25:31.570Z,12.40
2022-11-06T11:28:03.678Z,12.50
2022-11-06T11:30:31.303Z,12.50
2022-11-06T11:32:58.058Z,12.40
2022-11-06T11:35:28.307Z,12.30
2022-11-06T11:38:13.401Z,12.30
2022-11-06T11:40:40.211Z,12.30
2022-11-06T11:43:15.594Z,12.30
2022-11-06T11:45:42.143Z,12.30
2022-11-06T11:48:12.513Z,12.30
2022-11-06T11:50:39.340Z,12.30
2022-11-06T11:53:10.628Z,12.30
2022-11-06T11:55:38.372Z,12.40
2022-11-06T11:58:06.388Z,12.50
2022-11-06T12:00:32.975Z,12.60
2022-11-06T12:03:00.464Z,12.60
2022-11-06T12:05:28.580Z,12.70
2022-11-06T12:07:55.910Z,12.80
2022-11-06T12:10:25.492Z,12.80
2022-11-06T12:12:52.033Z,12.90
2022-11-06T12:15:26.928Z,12.90
2022-11-06T12:18:01.945Z,13.10
2022-11-06T12:20:42.596Z,13.10
2022-11-06T12:23:11.246Z,13.20
2022-11-06T12:25:39.123Z,13.30
2022-11-06T12:28:10.816Z,13.40
2022-11-06T12:30:37.538Z,13.50
2022-11-06T12:33:17.358Z,13.50
2022-11-06T12:35:45.984Z,13.30
2022-11-06T12:38:18.720Z,13.10
2022-11-06T12:40:47.364Z,13.00
2022-11-06T12:43:16.889Z,13.00
2022-11-06T12:46:02.357Z,13.00
2022-11-06T12:48:49.171Z,13.00
2022-11-06T12:51:18.367Z,12.90
2022-11-06T12:53:55.106Z,12.80
2022-11-06T12:56:31.556Z,12.60
2022-11-06T12:59:01.038Z,12.80
2022-11-06T13:01:38.138Z,12.80
2022-11-06T13:04:23.623Z,12.70
2022-11-06T13:06:53.343Z,12.70
2022-11-06T13:09:21.904Z,12.60
2022-11-06T13:11:49.387Z,12.40
2022-11-06T13:14:18.931Z,12.40
2022-11-06T13:17:14.923Z,12.40
2022-11-06T13:20:00.269Z,12.60
2022-11-06T13:22:29.283Z,12.90
2022-11-06T13:25:07.579Z,13.00
2022-11-06T13:27:37.563Z,13.10
2022-11-06T13:30:14.715Z,13.20
2022-11-06T13:32:41.886Z,13.20
2022-11-06T13:35:15.745Z,13.20
2022-11-06T13:37:43.537Z,13.10
2022-11-06T13:40:10.321Z,12.90
2022-11-06T13:42:37.963Z,12.70
2022-11-06T13:45:06.393Z,12.60
2022-11-06T13:47:38.861Z,12.50
2022-11-06T13:50:17.706Z,12.40
2022-11-06T13:53:05.011Z,12.40
2022-11-06T13:55:31.577Z,12.30
2022-11-06T13:58:03.343Z,12.20
2022-11-06T14:00:39.009Z,12.10
2022-11-06T14:03:05.577Z,12.00
2022-11-06T14:05:44.495Z,12.00
2022-11-06T14:08:13.318Z,12.00
2022-11-06T14:10:42.114Z,11.90
2022-11-06T14:13:08.830Z,11.80
2022-11-06T14:15:37.708Z,11.80
2022-11-06T14:18:04.341Z,11.80
2022-11-06T14:20:32.554Z,11.70
2022-11-06T14:23:18.017Z,11.70
2022-11-06T14:25:45.162Z,11.70
2022-11-06T14:28:11.894Z,11.70
2022-11-06T14:31:10.385Z,11.80
2022-11-06T14:33:44.637Z,11.70
2022-11-06T14:36:14.405Z,11.70
2022-11-06T14:38:42.545Z,11.70
2022-11-06T14:41:29.353Z,11.60
2022-11-06T14:43:55.914Z,11.60
2022-11-06T14:46:22.813Z,11.60
2022-11-06T14:48:50.317Z,11.70
2022-11-06T14:51:16.893Z,11.60
2022-11-06T14:53:47.690Z,11.60
2022-11-06T14:56:20.375Z,11.60
2022-11-06T14:59:07.166Z,11.60
2022-11-06T15:01:34.286Z,11.50
2022-11-06T15:04:00.890Z,11.40
2022-11-06T15:06:33.434Z,11.40
2022-11-06T15:09:05.080Z,11.30
2022-11-06T15:11:47.987Z,11.20
2022-11-06T15:14:14.797Z,11.20
2022-11-06T15:16:50.566Z,11.20
2022-11-06T15:19:20.907Z,11.10
2022-11-06T15:21:52.785Z,11.10
2022-11-06T15:24:21.548Z,11.10
2022-11-06T15:26:51.574Z,11.00
2022-11-06T15:29:18.997Z,10.90
2022-11-06T15:31:46.955Z,10.90
2022-11-06T15:34:31.931Z,10.90
2022-11-06T15:37:03.066Z,10.90
2022-11-06T15:39:29.678Z,10.80
2022-11-06T15:41:56.365Z,10.80
2022-11-06T15:44:23.225Z,10.80
2022-11-06T15:46:56.301Z,10.70
2022-11-06T15:49:22.887Z,10.60
2022-11-06T15:51:53.601Z,10.50
2022-11-06T15:54:39.120Z,10.50
2022-11-06T15:57:16.611Z,10.40
2022-11-06T15:59:43.276Z,10.40
2022-11-06T16:02:12.461Z,10.40
2022-11-06T16:04:39.310Z,10.40
2022-11-06T16:07:06.037Z,10.30
2022-11-06T16:09:32.601Z,10.30
2022-11-06T16:11:59.153Z,10.30
2022-11-06T16:14:25.696Z,10.30
2022-11-06T16:16:52.658Z,10.30
2022-11-06T16:19:21.942Z,10.20
2022-11-06T16:21:50.159Z,10.20
2022-11-06T16:24:16.704Z,10.10
2022-11-06T16:26:47.124Z,10.10
2022-11-06T16:29:19.811Z,10.10
2022-11-06T16:31:48.187Z,10.10
2022-11-06T16:34:33.905Z,10.10
2022-11-06T16:37:04.494Z,10.00
2022-11-06T16:39:48.353Z,10.00
2022-11-06T16:42:21.982Z,10.00
2022-11-06T16:44:48.947Z,10.00
2022-11-06T16:47:22.428Z,9.90
2022-11-06T16:49:53.848Z,9.90
2022-11-06T16:52:21.108Z,9.80
2022-11-06T16:54:48.391Z,9.80
2022-11-06T16:57:19.242Z,9.80
2022-11-06T16:59:53.287Z,9.80
2022-11-06T17:02:20.564Z,9.80
2022-11-06T17:04:47.375Z,9.70
2022-11-06T17:07:20.046Z,9.70
2022-11-06T17:09:46.659Z,9.70
2022-11-06T17:12:13.249Z,9.70
2022-11-06T17:14:43.484Z,9.70
2022-11-06T17:17:24.399Z,9.70
2022-11-06T17:19:51.135Z,9.70
2022-11-06T17:22:17.687Z,9.70
2022-11-06T17:24:44.234Z,9.70
2022-11-06T17:27:10.846Z,9.70
2022-11-06T17:29:38.687Z,9.60
2022-11-06T17:32:05.278Z,9.60
2022-11-06T17:34:31.833Z,9.80
2022-11-06T17:36:58.392Z,9.80
2022-11-06T17:39:25.676Z,9.80
2022-11-06T17:41:53.560Z,9.70
2022-11-06T17:44:21.648Z,9.60
2022-11-06T17:46:48.759Z,9.60
2022-11-06T17:49:18.152Z,9.60
2022-11-06T17:51:58.409Z,9.60
2022-11-06T17:54:26.520Z,9.60
2022-11-06T17:56:53.734Z,9.60
2022-11-06T17:59:20.415Z,9.50
2022-11-06T18:01:47.750Z,9.50
2022-11-06T18:04:14.571Z,9.50
2022-11-06T18:06:43.447Z,9.50
2022-11-06T18:09:10.120Z,9.50
2022-11-06T18:11:36.702Z,9.60
2022-11-06T18:14:03.265Z,9.60
2022-11-06T18:16:30.659Z,9.60
2022-11-06T18:18:57.295Z,9.50
2022-11-06T18:21:23.984Z,9.50
2022-11-06T18:23:50.581Z,9.50
2022-11-06T18:26:17.512Z,9.50
2022-11-06T18:28:44.079Z,9.60
2022-11-06T18:31:10.628Z,9.60
2022-11-06T18:33:37.202Z,9.60
2022-11-06T18:36:04.479Z,9.60
2022-11-06T18:38:31.143Z,9.60
2022-11-06T18:40:57.724Z,9.60
2022-11-06T18:43:24.301Z,9.60
2022-11-06T18:45:50.990Z,9.60
2022-11-06T18:48:21.309Z,9.60
2022-11-06T18:50:48.361Z,9.50
2022-11-06T18:53:15.231Z,9.50
2022-11-06T18:55:45.813Z,9.40
2022-11-06T18:58:12.891Z,9.30
2022-11-06T19:00:39.699Z,9.20
2022-11-06T19:03:06.392Z,9.20
2022-11-06T19:05:34.259Z,9.20
2022-11-06T19:08:01.308Z,9.10
2022-11-06T19:10:29.409Z,9.10
2022-11-06T19:12:59.254Z,9.00
2022-11-06T19:15:26.359Z,9.00
2022-11-06T19:17:54.044Z,8.90
2022-11-06T19:20:21.072Z,8.90
2022-11-06T19:22:53.862Z,9.00
2022-11-06T19:25:20.556Z,8.90
2022-11-06T19:27:47.454Z,8.90
2022-11-06T19:30:14.403Z,8.80
2022-11-06T19:32:41.253Z,8.80
2022-11-06T19:35:08.005Z,8.80
2022-11-06T19:37:36.126Z,8.80
2022-11-06T19:40:06.091Z,8.80
2022-11-06T19:42:33.087Z,8.80
2022-11-06T19:45:00.203Z,8.70
2022-11-06T19:47:28.075Z,8.70
2022-11-06T19:49:54.635Z,8.70
2022-11-06T19:52:41.967Z,8.70
2022-11-06T19:55:25.089Z,8.70
2022-11-06T19:57:54.757Z,8.70
2022-11-06T20:00:21.307Z,8.70
2022-11-06T20:02:51.046Z,8.70
2022-11-06T20:05:17.947Z,8.70
2022-11-06T20:07:44.699Z,8.70
2022-11-06T20:10:13.993Z,8.60
2022-11-06T20:12:40.534Z,8.60
2022-11-06T20:15:07.278Z,8.50
2022-11-06T20:17:33.816Z,8.50
2022-11-06T20:20:00.358Z,8.50
2022-11-06T20:22:27.262Z,8.50
2022-11-06T20:24:53.814Z,8.40
2022-11-06T20:27:20.341Z,8.40
2022-11-06T20:29:46.913Z,8.40
2022-11-06T20:35:00.599Z,8.30
2022-11-06T20:37:27.670Z,8.20
2022-11-06T20:39:54.292Z,8.20
2022-11-06T20:42:20.830Z,8.20
2022-11-06T20:44:47.375Z,8.20
2022-11-06T20:47:13.912Z,8.10
2022-11-06T20:49:40.698Z,8.10
2022-11-06T20:52:15.515Z,8.00
2022-11-06T20:54:46.703Z,8.00
2022-11-06T20:57:14.718Z,8.00
2022-11-06T20:59:41.258Z,7.90
2022-11-06T21:02:10.709Z,7.90
2022-11-06T21:04:37.422Z,7.80
2022-11-06T21:07:03.946Z,7.80
2022-11-06T21:09:30.558Z,7.90
2022-11-06T21:11:57.439Z,7.80
2022-11-06T21:14:24.689Z,7.80
2022-11-06T21:16:52.504Z,7.80
2022-11-06T21:19:19.056Z,7.80
2022-11-06T21:21:45.585Z,7.70
2022-11-06T21:24:12.239Z,7.70
2022-11-06T21:26:38.883Z,7.80
2022-11-06T21:29:06.260Z,7.80
2022-11-06T21:31:33.061Z,7.90
2022-11-06T21:34:00.417Z,7.90
2022-11-06T21:36:30.961Z,7.90
2022-11-06T21:38:58.879Z,8.00
2022-11-06T21:41:25.911Z,8.00
2022-11-06T21:43:52.515Z,8.10
2022-11-06T21:46:19.370Z,8.10
2022-11-06T21:48:47.471Z,8.10
2022-11-06T21:51:15.422Z,8.20
2022-11-06T21:54:00.433Z,8.20
2022-11-06T21:56:26.983Z,8.30
2022-11-06T21:58:55.172Z,8.30
2022-11-06T22:01:21.795Z,8.30
2022-11-06T22:03:48.562Z,8.40
2022-11-06T22:06:16.900Z,8.40
2022-11-06T22:08:44.010Z,8.40
2022-11-06T22:11:22.674Z,8.40
2022-11-06T22:13:49.460Z,8.40
2022-11-06T22:16:16.788Z,8.50
2022-11-06T22:18:43.516Z,8.50
2022-11-06T22:21:13.822Z,8.40
2022-11-06T22:23:40.377Z,8.50
2022-11-06T22:26:07.640Z,8.50
2022-11-06T22:28:34.189Z,8.50
2022-11-06T22:31:01.052Z,8.50
2022-11-06T22:33:27.781Z,8.50
2022-11-06T22:36:00.298Z,8.50
2022-11-06T22:38:26.878Z,8.60
2022-11-06T22:40:53.919Z,8.60
2022-11-06T22:43:20.770Z,8.60
2022-11-06T22:45:47.358Z,8.70
2022-11-06T22:48:14.012Z,8.70
2022-11-06T22:50:40.607Z,8.70
2022-11-06T22:53:12.043Z,8.70
2022-11-06T22:55:41.311Z,8.70
2022-11-06T22:58:07.854Z,8.60
2022-11-06T23:00:34.543Z,8.60
2022-11-06T23:03:01.183Z,8.50
2022-11-06T23:05:27.808Z,8.50
2022-11-06T23:07:54.360Z,8.40
2022-11-06T23:10:28.674Z,8.50
2022-11-06T23:12:56.488Z,8.50
2022-11-06T23:15:23.531Z,8.60
2022-11-06T23:17:50.263Z,8.70
2022-11-06T23:20:16.827Z,8.80
2022-11-06T23:22:43.589Z,8.80
2022-11-06T23:25:10.254Z,8.90
2022-11-06T23:27:36.782Z,8.90
2022-11-06T23:30:03.773Z,8.90
2022-11-06T23:32:30.838Z,8.90
2022-11-06T23:34:57.393Z,8.90
2022-11-06T23:37:24.066Z,8.90
2022-11-06T23:39:50.620Z,8.90
2022-11-06T23:42:17.599Z,8.90
2022-11-06T23:45:02.958Z,8.90
2022-11-06T23:47:29.528Z,8.90
2022-11-06T23:49:56.074Z,8.90
2022-11-06T23:52:22.623Z,8.90
2022-11-06T23:54:49.175Z,8.90
2022-11-06T23:57:15.702Z,9.00
2022-11-06T23:59:42.268Z,8.90
